sensor_id;sensor_type;location;lat;lon;timestamp;P1;durP1;ratioP1;P2;durP2;ratioP2
62724;SDS011;49026;52.600;4.694;2022-10-16T00:01:30;9.85;;;1.67;;
62724;SDS011;49026;52.600;4.694;2022-10-16T00:03:56;8.98;;;1.30;;
62724;SDS011;49026;52.600;4.694;2022-10-16T00:06:23;10.50;;;2.00;;
62724;SDS011;49026;52.600;4.694;2022-10-16T00:08:49;4.00;;;1.00;;
62724;SDS011;49026;52.600;4.694;2022-10-16T00:11:19;8.48;;;1.30;;
62724;SDS011;49026;52.600;4.694;2022-10-16T00:13:46;4.53;;;1.50;;
62724;SDS011;49026;52.600;4.694;2022-10-16T00:16:15;9.55;;;1.13;;
62724;SDS011;49026;52.600;4.694;2022-10-16T00:18:41;9.35;;;1.80;;
62724;SDS011;49026;52.600;4.694;2022-10-16T00:21:14;9.88;;;2.05;;
62724;SDS011;49026;52.600;4.694;2022-10-16T00:23:44;5.45;;;1.00;;
62724;SDS011;49026;52.600;4.694;2022-10-16T00:26:11;7.18;;;1.42;;
62724;SDS011;49026;52.600;4.694;2022-10-16T00:28:38;5.90;;;1.10;;
62724;SDS011;49026;52.600;4.694;2022-10-16T00:31:07;10.48;;;1.65;;
62724;SDS011;49026;52.600;4.694;2022-10-16T00:33:34;4.38;;;1.20;;
62724;SDS011;49026;52.600;4.694;2022-10-16T00:36:02;4.95;;;1.20;;
62724;SDS011;49026;52.600;4.694;2022-10-16T00:38:28;5.07;;;1.77;;
62724;SDS011;49026;52.600;4.694;2022-10-16T00:41:04;7.32;;;1.30;;
62724;SDS011;49026;52.600;4.694;2022-10-16T00:46:04;6.03;;;1.00;;
62724;SDS011;49026;52.600;4.694;2022-10-16T00:48:35;7.45;;;1.05;;
62724;SDS011;49026;52.600;4.694;2022-10-16T00:51:00;4.50;;;1.33;;
62724;SDS011;49026;52.600;4.694;2022-10-16T00:53:26;4.93;;;1.20;;
62724;SDS011;49026;52.600;4.694;2022-10-16T00:55:52;11.00;;;1.75;;
62724;SDS011;49026;52.600;4.694;2022-10-16T00:58:20;6.95;;;1.70;;
62724;SDS011;49026;52.600;4.694;2022-10-16T01:00:48;5.65;;;1.40;;
62724;SDS011;49026;52.600;4.694;2022-10-16T01:03:30;7.07;;;1.63;;
62724;SDS011;49026;52.600;4.694;2022-10-16T01:06:59;8.60;;;1.75;;
62724;SDS011;49026;52.600;4.694;2022-10-16T01:11:44;25.10;;;3.80;;
62724;SDS011;49026;52.600;4.694;2022-10-16T01:14:40;7.50;;;1.70;;
62724;SDS011;49026;52.600;4.694;2022-10-16T01:17:18;10.77;;;2.25;;
62724;SDS011;49026;52.600;4.694;2022-10-16T01:20:08;9.77;;;2.00;;
62724;SDS011;49026;52.600;4.694;2022-10-16T01:22:43;12.38;;;2.88;;
62724;SDS011;49026;52.600;4.694;2022-10-16T01:25:39;4.43;;;1.30;;
62724;SDS011;49026;52.600;4.694;2022-10-16T01:28:10;10.30;;;1.92;;
62724;SDS011;49026;52.600;4.694;2022-10-16T01:33:15;5.75;;;1.20;;
62724;SDS011;49026;52.600;4.694;2022-10-16T01:35:48;9.93;;;1.58;;
62724;SDS011;49026;52.600;4.694;2022-10-16T01:41:00;5.47;;;1.38;;
62724;SDS011;49026;52.600;4.694;2022-10-16T01:43:33;6.97;;;1.48;;
62724;SDS011;49026;52.600;4.694;2022-10-16T01:46:03;8.90;;;1.67;;
62724;SDS011;49026;52.600;4.694;2022-10-16T01:48:30;12.52;;;1.50;;
62724;SDS011;49026;52.600;4.694;2022-10-16T01:51:03;7.43;;;1.08;;
62724;SDS011;49026;52.600;4.694;2022-10-16T01:53:36;6.35;;;1.80;;
62724;SDS011;49026;52.600;4.694;2022-10-16T01:56:03;9.30;;;1.27;;
62724;SDS011;49026;52.600;4.694;2022-10-16T01:58:34;9.90;;;1.90;;
62724;SDS011;49026;52.600;4.694;2022-10-16T02:01:03;8.38;;;1.67;;
62724;SDS011;49026;52.600;4.694;2022-10-16T02:03:33;12.60;;;1.58;;
62724;SDS011;49026;52.600;4.694;2022-10-16T02:05:59;14.48;;;2.13;;
62724;SDS011;49026;52.600;4.694;2022-10-16T02:08:25;10.32;;;1.10;;
62724;SDS011;49026;52.600;4.694;2022-10-16T02:10:54;7.90;;;1.60;;
62724;SDS011;49026;52.600;4.694;2022-10-16T02:13:26;17.55;;;2.03;;
62724;SDS011;49026;52.600;4.694;2022-10-16T02:15:56;11.23;;;1.48;;
62724;SDS011;49026;52.600;4.694;2022-10-16T02:18:21;10.23;;;1.88;;
62724;SDS011;49026;52.600;4.694;2022-10-16T02:26:30;10.77;;;1.65;;
62724;SDS011;49026;52.600;4.694;2022-10-16T02:29:01;17.02;;;1.95;;
62724;SDS011;49026;52.600;4.694;2022-10-16T02:31:32;5.72;;;1.45;;
62724;SDS011;49026;52.600;4.694;2022-10-16T02:34:05;12.15;;;2.25;;
62724;SDS011;49026;52.600;4.694;2022-10-16T02:36:33;7.00;;;1.38;;
62724;SDS011;49026;52.600;4.694;2022-10-16T02:39:01;13.35;;;1.80;;
62724;SDS011;49026;52.600;4.694;2022-10-16T02:41:30;13.35;;;1.50;;
62724;SDS011;49026;52.600;4.694;2022-10-16T02:43:56;9.52;;;2.13;;
62724;SDS011;49026;52.600;4.694;2022-10-16T02:46:22;7.38;;;1.80;;
62724;SDS011;49026;52.600;4.694;2022-10-16T02:48:47;12.30;;;2.20;;
62724;SDS011;49026;52.600;4.694;2022-10-16T02:51:13;10.05;;;2.38;;
62724;SDS011;49026;52.600;4.694;2022-10-16T02:53:41;13.57;;;3.20;;
62724;SDS011;49026;52.600;4.694;2022-10-16T02:56:07;14.65;;;2.17;;
62724;SDS011;49026;52.600;4.694;2022-10-16T02:58:32;11.32;;;1.90;;
62724;SDS011;49026;52.600;4.694;2022-10-16T03:00:57;15.30;;;3.30;;
62724;SDS011;49026;52.600;4.694;2022-10-16T03:03:24;13.10;;;2.55;;
62724;SDS011;49026;52.600;4.694;2022-10-16T03:05:50;11.43;;;2.35;;
62724;SDS011;49026;52.600;4.694;2022-10-16T03:08:17;16.50;;;2.10;;
62724;SDS011;49026;52.600;4.694;2022-10-16T03:10:48;8.55;;;2.30;;
62724;SDS011;49026;52.600;4.694;2022-10-16T03:13:15;11.45;;;2.38;;
62724;SDS011;49026;52.600;4.694;2022-10-16T03:15:41;13.07;;;2.20;;
62724;SDS011;49026;52.600;4.694;2022-10-16T03:18:06;10.85;;;1.95;;
62724;SDS011;49026;52.600;4.694;2022-10-16T03:20:32;13.07;;;2.58;;
62724;SDS011;49026;52.600;4.694;2022-10-16T03:22:57;13.13;;;2.38;;
62724;SDS011;49026;52.600;4.694;2022-10-16T03:25:22;24.98;;;4.90;;
62724;SDS011;49026;52.600;4.694;2022-10-16T03:27:50;24.70;;;2.58;;
62724;SDS011;49026;52.600;4.694;2022-10-16T03:30:15;17.25;;;2.33;;
62724;SDS011;49026;52.600;4.694;2022-10-16T03:32:43;14.77;;;2.08;;
62724;SDS011;49026;52.600;4.694;2022-10-16T03:35:09;22.50;;;2.35;;
62724;SDS011;49026;52.600;4.694;2022-10-16T03:37:37;17.00;;;2.33;;
62724;SDS011;49026;52.600;4.694;2022-10-16T03:40:05;6.43;;;2.08;;
62724;SDS011;49026;52.600;4.694;2022-10-16T03:42:30;19.10;;;2.60;;
62724;SDS011;49026;52.600;4.694;2022-10-16T03:44:58;10.85;;;2.22;;
62724;SDS011;49026;52.600;4.694;2022-10-16T03:47:23;11.75;;;2.35;;
62724;SDS011;49026;52.600;4.694;2022-10-16T03:49:49;26.35;;;2.25;;
62724;SDS011;49026;52.600;4.694;2022-10-16T03:52:15;10.00;;;1.63;;
62724;SDS011;49026;52.600;4.694;2022-10-16T03:54:43;10.57;;;1.35;;
62724;SDS011;49026;52.600;4.694;2022-10-16T03:57:08;19.23;;;2.63;;
62724;SDS011;49026;52.600;4.694;2022-10-16T03:59:34;22.25;;;2.30;;
62724;SDS011;49026;52.600;4.694;2022-10-16T04:02:01;15.05;;;1.98;;
62724;SDS011;49026;52.600;4.694;2022-10-16T04:04:29;25.15;;;3.53;;
62724;SDS011;49026;52.600;4.694;2022-10-16T04:06:54;21.33;;;2.63;;
62724;SDS011;49026;52.600;4.694;2022-10-16T04:09:21;13.32;;;2.78;;
62724;SDS011;49026;52.600;4.694;2022-10-16T04:11:47;13.93;;;1.85;;
62724;SDS011;49026;52.600;4.694;2022-10-16T04:14:12;9.77;;;2.30;;
62724;SDS011;49026;52.600;4.694;2022-10-16T04:16:37;21.50;;;3.95;;
62724;SDS011;49026;52.600;4.694;2022-10-16T04:19:03;6.90;;;2.35;;
62724;SDS011;49026;52.600;4.694;2022-10-16T04:21:31;10.63;;;2.40;;
62724;SDS011;49026;52.600;4.694;2022-10-16T04:23:56;14.40;;;2.50;;
62724;SDS011;49026;52.600;4.694;2022-10-16T04:26:21;18.80;;;2.75;;
62724;SDS011;49026;52.600;4.694;2022-10-16T04:28:47;11.15;;;2.28;;
62724;SDS011;49026;52.600;4.694;2022-10-16T04:31:12;19.35;;;2.10;;
62724;SDS011;49026;52.600;4.694;2022-10-16T04:33:37;22.50;;;2.45;;
62724;SDS011;49026;52.600;4.694;2022-10-16T04:36:05;18.02;;;1.95;;
62724;SDS011;49026;52.600;4.694;2022-10-16T04:40:58;14.45;;;2.00;;
62724;SDS011;49026;52.600;4.694;2022-10-16T04:43:25;10.52;;;1.50;;
62724;SDS011;49026;52.600;4.694;2022-10-16T04:45:50;15.57;;;1.60;;
62724;SDS011;49026;52.600;4.694;2022-10-16T04:48:16;20.38;;;2.28;;
62724;SDS011;49026;52.600;4.694;2022-10-16T04:50:42;9.68;;;2.03;;
62724;SDS011;49026;52.600;4.694;2022-10-16T04:53:07;31.33;;;2.67;;
62724;SDS011;49026;52.600;4.694;2022-10-16T04:55:32;33.67;;;3.30;;
62724;SDS011;49026;52.600;4.694;2022-10-16T04:57:58;21.02;;;2.78;;
62724;SDS011;49026;52.600;4.694;2022-10-16T05:00:23;26.65;;;3.72;;
62724;SDS011;49026;52.600;4.694;2022-10-16T05:02:52;37.30;;;2.90;;
62724;SDS011;49026;52.600;4.694;2022-10-16T05:05:17;37.50;;;4.28;;
62724;SDS011;49026;52.600;4.694;2022-10-16T05:07:44;16.75;;;2.65;;
62724;SDS011;49026;52.600;4.694;2022-10-16T05:10:10;22.70;;;3.45;;
62724;SDS011;49026;52.600;4.694;2022-10-16T05:12:35;30.35;;;3.50;;
62724;SDS011;49026;52.600;4.694;2022-10-16T05:15:01;30.00;;;3.58;;
62724;SDS011;49026;52.600;4.694;2022-10-16T05:17:29;25.60;;;2.30;;
62724;SDS011;49026;52.600;4.694;2022-10-16T05:19:54;14.88;;;2.53;;
62724;SDS011;49026;52.600;4.694;2022-10-16T05:22:19;14.30;;;2.65;;
62724;SDS011;49026;52.600;4.694;2022-10-16T05:24:45;16.67;;;2.88;;
62724;SDS011;49026;52.600;4.694;2022-10-16T05:27:10;14.30;;;1.88;;
62724;SDS011;49026;52.600;4.694;2022-10-16T05:29:36;16.58;;;2.17;;
62724;SDS011;49026;52.600;4.694;2022-10-16T05:32:01;13.43;;;1.90;;
62724;SDS011;49026;52.600;4.694;2022-10-16T05:34:27;12.52;;;2.50;;
62724;SDS011;49026;52.600;4.694;2022-10-16T05:36:52;12.18;;;2.15;;
62724;SDS011;49026;52.600;4.694;2022-10-16T05:39:17;13.88;;;2.65;;
62724;SDS011;49026;52.600;4.694;2022-10-16T05:41:45;12.45;;;2.72;;
62724;SDS011;49026;52.600;4.694;2022-10-16T05:44:11;13.18;;;2.22;;
62724;SDS011;49026;52.600;4.694;2022-10-16T05:46:36;5.50;;;1.98;;
62724;SDS011;49026;52.600;4.694;2022-10-16T05:49:01;18.50;;;3.10;;
62724;SDS011;49026;52.600;4.694;2022-10-16T05:51:27;17.08;;;2.72;;
62724;SDS011;49026;52.600;4.694;2022-10-16T05:53:52;13.18;;;2.28;;
62724;SDS011;49026;52.600;4.694;2022-10-16T05:56:20;18.08;;;2.97;;
62724;SDS011;49026;52.600;4.694;2022-10-16T05:58:45;17.42;;;2.88;;
62724;SDS011;49026;52.600;4.694;2022-10-16T06:01:12;13.98;;;3.05;;
62724;SDS011;49026;52.600;4.694;2022-10-16T06:03:38;15.50;;;2.35;;
62724;SDS011;49026;52.600;4.694;2022-10-16T06:06:17;14.50;;;2.90;;
62724;SDS011;49026;52.600;4.694;2022-10-16T06:08:46;16.05;;;3.10;;
62724;SDS011;49026;52.600;4.694;2022-10-16T06:11:14;20.30;;;3.42;;
62724;SDS011;49026;52.600;4.694;2022-10-16T06:13:41;21.02;;;3.97;;
62724;SDS011;49026;52.600;4.694;2022-10-16T06:16:07;20.05;;;3.05;;
62724;SDS011;49026;52.600;4.694;2022-10-16T06:18:36;19.85;;;2.55;;
62724;SDS011;49026;52.600;4.694;2022-10-16T06:21:11;14.48;;;2.53;;
62724;SDS011;49026;52.600;4.694;2022-10-16T06:23:38;19.38;;;3.17;;
62724;SDS011;49026;52.600;4.694;2022-10-16T06:26:04;14.20;;;2.65;;
62724;SDS011;49026;52.600;4.694;2022-10-16T06:28:33;12.75;;;2.83;;
62724;SDS011;49026;52.600;4.694;2022-10-16T06:31:02;13.82;;;3.05;;
62724;SDS011;49026;52.600;4.694;2022-10-16T06:35:59;17.98;;;2.58;;
62724;SDS011;49026;52.600;4.694;2022-10-16T06:38:29;15.43;;;2.50;;
62724;SDS011;49026;52.600;4.694;2022-10-16T06:40:55;25.75;;;4.15;;
62724;SDS011;49026;52.600;4.694;2022-10-16T06:43:20;13.90;;;1.85;;
62724;SDS011;49026;52.600;4.694;2022-10-16T06:45:52;18.90;;;3.75;;
62724;SDS011;49026;52.600;4.694;2022-10-16T06:48:18;9.00;;;1.80;;
62724;SDS011;49026;52.600;4.694;2022-10-16T06:50:43;13.98;;;2.17;;
62724;SDS011;49026;52.600;4.694;2022-10-16T06:53:08;20.63;;;2.45;;
62724;SDS011;49026;52.600;4.694;2022-10-16T06:55:34;24.48;;;2.67;;
62724;SDS011;49026;52.600;4.694;2022-10-16T06:57:59;18.52;;;2.75;;
62724;SDS011;49026;52.600;4.694;2022-10-16T07:00:24;15.98;;;2.78;;
62724;SDS011;49026;52.600;4.694;2022-10-16T07:02:53;17.83;;;2.97;;
62724;SDS011;49026;52.600;4.694;2022-10-16T07:05:20;19.15;;;3.13;;
62724;SDS011;49026;52.600;4.694;2022-10-16T07:07:45;11.82;;;2.78;;
62724;SDS011;49026;52.600;4.694;2022-10-16T07:10:11;21.02;;;2.65;;
62724;SDS011;49026;52.600;4.694;2022-10-16T07:12:36;8.77;;;1.65;;
62724;SDS011;49026;52.600;4.694;2022-10-16T07:15:01;16.73;;;2.67;;
62724;SDS011;49026;52.600;4.694;2022-10-16T07:17:26;23.73;;;4.25;;
62724;SDS011;49026;52.600;4.694;2022-10-16T07:19:52;24.70;;;3.55;;
62724;SDS011;49026;52.600;4.694;2022-10-16T07:22:20;15.65;;;2.85;;
62724;SDS011;49026;52.600;4.694;2022-10-16T07:24:45;23.20;;;2.70;;
62724;SDS011;49026;52.600;4.694;2022-10-16T07:27:11;20.38;;;3.15;;
62724;SDS011;49026;52.600;4.694;2022-10-16T07:29:36;22.10;;;2.53;;
62724;SDS011;49026;52.600;4.694;2022-10-16T07:32:01;15.18;;;2.13;;
62724;SDS011;49026;52.600;4.694;2022-10-16T07:34:29;13.43;;;2.78;;
62724;SDS011;49026;52.600;4.694;2022-10-16T07:36:57;20.70;;;2.38;;
62724;SDS011;49026;52.600;4.694;2022-10-16T07:39:22;17.13;;;3.30;;
62724;SDS011;49026;52.600;4.694;2022-10-16T07:41:48;18.00;;;2.78;;
62724;SDS011;49026;52.600;4.694;2022-10-16T07:44:15;19.92;;;2.20;;
62724;SDS011;49026;52.600;4.694;2022-10-16T07:46:41;15.68;;;3.17;;
62724;SDS011;49026;52.600;4.694;2022-10-16T07:49:06;14.13;;;2.25;;
62724;SDS011;49026;52.600;4.694;2022-10-16T07:51:32;20.70;;;2.80;;
62724;SDS011;49026;52.600;4.694;2022-10-16T07:53:57;25.55;;;3.80;;
62724;SDS011;49026;52.600;4.694;2022-10-16T07:56:23;17.40;;;2.95;;
62724;SDS011;49026;52.600;4.694;2022-10-16T07:58:49;22.67;;;3.75;;
62724;SDS011;49026;52.600;4.694;2022-10-16T08:01:16;19.95;;;2.97;;
62724;SDS011;49026;52.600;4.694;2022-10-16T08:03:42;15.18;;;2.40;;
62724;SDS011;49026;52.600;4.694;2022-10-16T08:06:08;21.08;;;2.60;;
62724;SDS011;49026;52.600;4.694;2022-10-16T08:08:34;17.63;;;2.83;;
62724;SDS011;49026;52.600;4.694;2022-10-16T08:11:00;20.33;;;2.50;;
62724;SDS011;49026;52.600;4.694;2022-10-16T08:13:28;12.98;;;2.28;;
62724;SDS011;49026;52.600;4.694;2022-10-16T08:15:54;24.02;;;3.33;;
62724;SDS011;49026;52.600;4.694;2022-10-16T08:18:19;12.40;;;2.45;;
62724;SDS011;49026;52.600;4.694;2022-10-16T08:20:47;10.32;;;2.05;;
62724;SDS011;49026;52.600;4.694;2022-10-16T08:23:13;23.02;;;2.67;;
62724;SDS011;49026;52.600;4.694;2022-10-16T08:25:39;14.68;;;2.20;;
62724;SDS011;49026;52.600;4.694;2022-10-16T08:28:06;12.65;;;2.58;;
62724;SDS011;49026;52.600;4.694;2022-10-16T08:30:33;8.50;;;1.95;;
62724;SDS011;49026;52.600;4.694;2022-10-16T08:32:58;10.85;;;2.55;;
62724;SDS011;49026;52.600;4.694;2022-10-16T08:35:24;9.75;;;1.70;;
62724;SDS011;49026;52.600;4.694;2022-10-16T08:37:49;13.32;;;2.42;;
62724;SDS011;49026;52.600;4.694;2022-10-16T08:40:33;18.05;;;2.55;;
62724;SDS011;49026;52.600;4.694;2022-10-16T08:48:35;13.95;;;2.00;;
62724;SDS011;49026;52.600;4.694;2022-10-16T08:51:19;14.45;;;2.45;;
62724;SDS011;49026;52.600;4.694;2022-10-16T08:53:55;11.90;;;2.00;;
62724;SDS011;49026;52.600;4.694;2022-10-16T08:56:23;11.55;;;2.55;;
62724;SDS011;49026;52.600;4.694;2022-10-16T08:58:49;14.20;;;2.17;;
62724;SDS011;49026;52.600;4.694;2022-10-16T09:01:16;13.88;;;1.90;;
62724;SDS011;49026;52.600;4.694;2022-10-16T09:06:50;15.27;;;2.35;;
62724;SDS011;49026;52.600;4.694;2022-10-16T09:20:18;9.95;;;1.70;;
62724;SDS011;49026;52.600;4.694;2022-10-16T09:23:26;14.80;;;1.80;;
62724;SDS011;49026;52.600;4.694;2022-10-16T09:25:49;9.88;;;1.88;;
62724;SDS011;49026;52.600;4.694;2022-10-16T09:28:16;12.60;;;2.15;;
62724;SDS011;49026;52.600;4.694;2022-10-16T09:30:42;15.77;;;2.63;;
62724;SDS011;49026;52.600;4.694;2022-10-16T09:33:09;10.70;;;1.92;;
62724;SDS011;49026;52.600;4.694;2022-10-16T09:35:39;11.35;;;1.92;;
62724;SDS011;49026;52.600;4.694;2022-10-16T09:38:07;13.73;;;2.17;;
62724;SDS011;49026;52.600;4.694;2022-10-16T09:40:34;13.00;;;2.20;;
62724;SDS011;49026;52.600;4.694;2022-10-16T09:43:19;12.27;;;2.28;;
62724;SDS011;49026;52.600;4.694;2022-10-16T09:45:57;15.65;;;2.53;;
62724;SDS011;49026;52.600;4.694;2022-10-16T09:48:25;13.50;;;2.45;;
62724;SDS011;49026;52.600;4.694;2022-10-16T09:50:56;19.20;;;2.50;;
62724;SDS011;49026;52.600;4.694;2022-10-16T09:53:25;15.73;;;3.67;;
62724;SDS011;49026;52.600;4.694;2022-10-16T09:56:02;24.50;;;2.65;;
62724;SDS011;49026;52.600;4.694;2022-10-16T09:58:30;14.05;;;3.05;;
62724;SDS011;49026;52.600;4.694;2022-10-16T10:00:58;16.27;;;3.08;;
62724;SDS011;49026;52.600;4.694;2022-10-16T10:06:24;13.85;;;2.13;;
62724;SDS011;49026;52.600;4.694;2022-10-16T10:08:56;15.13;;;2.25;;
62724;SDS011;49026;52.600;4.694;2022-10-16T10:11:37;9.45;;;2.08;;
62724;SDS011;49026;52.600;4.694;2022-10-16T10:14:14;9.73;;;1.83;;
62724;SDS011;49026;52.600;4.694;2022-10-16T10:16:43;11.13;;;2.00;;
62724;SDS011;49026;52.600;4.694;2022-10-16T10:19:26;10.77;;;2.00;;
62724;SDS011;49026;52.600;4.694;2022-10-16T10:21:52;16.90;;;1.73;;
62724;SDS011;49026;52.600;4.694;2022-10-16T10:24:18;9.48;;;1.70;;
62724;SDS011;49026;52.600;4.694;2022-10-16T10:32:14;10.70;;;2.10;;
62724;SDS011;49026;52.600;4.694;2022-10-16T10:42:52;11.57;;;1.88;;
62724;SDS011;49026;52.600;4.694;2022-10-16T10:45:57;18.73;;;4.78;;
62724;SDS011;49026;52.600;4.694;2022-10-16T10:51:51;12.38;;;2.20;;
62724;SDS011;49026;52.600;4.694;2022-10-16T10:56:50;14.00;;;1.90;;
62724;SDS011;49026;52.600;4.694;2022-10-16T11:02:23;16.17;;;1.90;;
62724;SDS011;49026;52.600;4.694;2022-10-16T11:05:09;21.90;;;2.35;;
62724;SDS011;49026;52.600;4.694;2022-10-16T11:07:52;14.02;;;2.30;;
62724;SDS011;49026;52.600;4.694;2022-10-16T11:10:46;12.93;;;2.10;;
62724;SDS011;49026;52.600;4.694;2022-10-16T11:13:37;7.75;;;1.70;;
62724;SDS011;49026;52.600;4.694;2022-10-16T11:16:14;14.70;;;2.33;;
62724;SDS011;49026;52.600;4.694;2022-10-16T11:24:41;17.92;;;2.42;;
62724;SDS011;49026;52.600;4.694;2022-10-16T11:27:14;11.95;;;1.80;;
62724;SDS011;49026;52.600;4.694;2022-10-16T11:29:53;13.23;;;1.85;;
62724;SDS011;49026;52.600;4.694;2022-10-16T11:35:19;12.23;;;1.88;;
62724;SDS011;49026;52.600;4.694;2022-10-16T11:37:50;15.23;;;2.10;;
62724;SDS011;49026;52.600;4.694;2022-10-16T11:40:22;13.25;;;2.10;;
62724;SDS011;49026;52.600;4.694;2022-10-16T11:45:39;14.25;;;2.03;;
62724;SDS011;49026;52.600;4.694;2022-10-16T11:48:18;14.43;;;2.08;;
62724;SDS011;49026;52.600;4.694;2022-10-16T11:53:23;12.70;;;2.22;;
62724;SDS011;49026;52.600;4.694;2022-10-16T11:56:11;8.88;;;1.75;;
62724;SDS011;49026;52.600;4.694;2022-10-16T12:01:31;11.27;;;1.90;;
62724;SDS011;49026;52.600;4.694;2022-10-16T12:07:01;9.68;;;1.58;;
62724;SDS011;49026;52.600;4.694;2022-10-16T12:09:31;11.90;;;1.98;;
62724;SDS011;49026;52.600;4.694;2022-10-16T12:11:59;6.75;;;1.48;;
62724;SDS011;49026;52.600;4.694;2022-10-16T12:16:56;15.07;;;2.67;;
62724;SDS011;49026;52.600;4.694;2022-10-16T12:19:26;12.18;;;1.98;;
62724;SDS011;49026;52.600;4.694;2022-10-16T12:26:56;11.57;;;2.25;;
62724;SDS011;49026;52.600;4.694;2022-10-16T12:29:35;11.48;;;1.92;;
62724;SDS011;49026;52.600;4.694;2022-10-16T12:32:29;9.00;;;1.52;;
62724;SDS011;49026;52.600;4.694;2022-10-16T12:34:57;10.60;;;1.60;;
62724;SDS011;49026;52.600;4.694;2022-10-16T12:39:57;11.70;;;2.22;;
62724;SDS011;49026;52.600;4.694;2022-10-16T12:42:31;12.85;;;2.10;;
62724;SDS011;49026;52.600;4.694;2022-10-16T12:44:58;11.73;;;1.80;;
62724;SDS011;49026;52.600;4.694;2022-10-16T12:49:56;10.98;;;1.50;;
62724;SDS011;49026;52.600;4.694;2022-10-16T12:54:58;10.05;;;2.03;;
62724;SDS011;49026;52.600;4.694;2022-10-16T13:11:05;12.57;;;2.50;;
62724;SDS011;49026;52.600;4.694;2022-10-16T13:24:34;10.38;;;1.40;;
62724;SDS011;49026;52.600;4.694;2022-10-16T13:27:14;9.35;;;1.70;;
62724;SDS011;49026;52.600;4.694;2022-10-16T13:29:52;11.60;;;2.60;;
62724;SDS011;49026;52.600;4.694;2022-10-16T13:32:22;10.38;;;1.75;;
62724;SDS011;49026;52.600;4.694;2022-10-16T13:34:48;11.90;;;1.58;;
62724;SDS011;49026;52.600;4.694;2022-10-16T13:37:37;13.15;;;1.67;;
62724;SDS011;49026;52.600;4.694;2022-10-16T13:40:06;13.27;;;1.95;;
62724;SDS011;49026;52.600;4.694;2022-10-16T13:42:53;11.68;;;1.42;;
62724;SDS011;49026;52.600;4.694;2022-10-16T13:45:25;10.38;;;1.80;;
62724;SDS011;49026;52.600;4.694;2022-10-16T13:48:12;11.50;;;2.53;;
62724;SDS011;49026;52.600;4.694;2022-10-16T13:50:37;11.35;;;1.98;;
62724;SDS011;49026;52.600;4.694;2022-10-16T13:53:06;7.47;;;1.30;;
62724;SDS011;49026;52.600;4.694;2022-10-16T13:55:37;7.03;;;1.27;;
62724;SDS011;49026;52.600;4.694;2022-10-16T13:58:05;9.57;;;1.40;;
62724;SDS011;49026;52.600;4.694;2022-10-16T14:00:32;10.27;;;1.90;;
62724;SDS011;49026;52.600;4.694;2022-10-16T14:03:01;11.70;;;1.35;;
62724;SDS011;49026;52.600;4.694;2022-10-16T14:05:35;9.48;;;1.58;;
62724;SDS011;49026;52.600;4.694;2022-10-16T14:08:22;10.73;;;1.50;;
62724;SDS011;49026;52.600;4.694;2022-10-16T14:10:50;10.05;;;1.75;;
62724;SDS011;49026;52.600;4.694;2022-10-16T14:13:20;12.70;;;1.92;;
62724;SDS011;49026;52.600;4.694;2022-10-16T14:15:54;11.52;;;1.83;;
62724;SDS011;49026;52.600;4.694;2022-10-16T14:18:25;11.20;;;1.42;;
62724;SDS011;49026;52.600;4.694;2022-10-16T14:23:31;9.95;;;1.30;;
62724;SDS011;49026;52.600;4.694;2022-10-16T14:26:11;5.82;;;1.60;;
62724;SDS011;49026;52.600;4.694;2022-10-16T14:28:38;13.77;;;1.42;;
62724;SDS011;49026;52.600;4.694;2022-10-16T14:33:58;8.88;;;1.25;;
62724;SDS011;49026;52.600;4.694;2022-10-16T14:36:24;12.82;;;1.48;;
62724;SDS011;49026;52.600;4.694;2022-10-16T14:39:04;15.75;;;1.90;;
62724;SDS011;49026;52.600;4.694;2022-10-16T14:41:43;12.73;;;1.70;;
62724;SDS011;49026;52.600;4.694;2022-10-16T14:44:13;9.82;;;1.80;;
62724;SDS011;49026;52.600;4.694;2022-10-16T14:46:42;16.08;;;1.50;;
62724;SDS011;49026;52.600;4.694;2022-10-16T14:51:41;12.32;;;1.52;;
62724;SDS011;49026;52.600;4.694;2022-10-16T14:54:09;10.68;;;1.50;;
62724;SDS011;49026;52.600;4.694;2022-10-16T14:56:46;14.00;;;2.15;;
62724;SDS011;49026;52.600;4.694;2022-10-16T14:59:26;12.52;;;1.83;;
62724;SDS011;49026;52.600;4.694;2022-10-16T15:01:55;11.50;;;1.45;;
62724;SDS011;49026;52.600;4.694;2022-10-16T15:04:21;7.95;;;1.20;;
62724;SDS011;49026;52.600;4.694;2022-10-16T15:06:46;11.23;;;1.63;;
62724;SDS011;49026;52.600;4.694;2022-10-16T15:09:11;11.52;;;1.73;;
62724;SDS011;49026;52.600;4.694;2022-10-16T15:11:37;20.27;;;2.20;;
62724;SDS011;49026;52.600;4.694;2022-10-16T15:14:02;14.57;;;1.95;;
62724;SDS011;49026;52.600;4.694;2022-10-16T15:16:28;11.75;;;1.85;;
62724;SDS011;49026;52.600;4.694;2022-10-16T15:18:54;11.43;;;1.67;;
62724;SDS011;49026;52.600;4.694;2022-10-16T15:21:28;11.98;;;2.00;;
62724;SDS011;49026;52.600;4.694;2022-10-16T15:23:57;18.17;;;2.30;;
62724;SDS011;49026;52.600;4.694;2022-10-16T15:26:27;13.68;;;2.08;;
62724;SDS011;49026;52.600;4.694;2022-10-16T15:31:19;13.90;;;2.10;;
62724;SDS011;49026;52.600;4.694;2022-10-16T15:33:46;10.93;;;2.10;;
62724;SDS011;49026;52.600;4.694;2022-10-16T15:36:23;11.98;;;2.20;;
62724;SDS011;49026;52.600;4.694;2022-10-16T15:38:50;10.70;;;2.40;;
62724;SDS011;49026;52.600;4.694;2022-10-16T15:41:15;10.10;;;1.70;;
62724;SDS011;49026;52.600;4.694;2022-10-16T15:43:40;12.82;;;2.08;;
62724;SDS011;49026;52.600;4.694;2022-10-16T15:46:07;10.68;;;1.77;;
62724;SDS011;49026;52.600;4.694;2022-10-16T15:48:39;15.80;;;2.65;;
62724;SDS011;49026;52.600;4.694;2022-10-16T15:51:05;10.82;;;2.10;;
62724;SDS011;49026;52.600;4.694;2022-10-16T15:53:31;10.57;;;2.17;;
62724;SDS011;49026;52.600;4.694;2022-10-16T15:56:05;13.93;;;2.30;;
62724;SDS011;49026;52.600;4.694;2022-10-16T15:58:31;11.23;;;2.08;;
62724;SDS011;49026;52.600;4.694;2022-10-16T16:00:58;14.13;;;2.42;;
62724;SDS011;49026;52.600;4.694;2022-10-16T16:03:29;10.98;;;2.20;;
62724;SDS011;49026;52.600;4.694;2022-10-16T16:05:55;13.50;;;2.28;;
62724;SDS011;49026;52.600;4.694;2022-10-16T16:08:20;17.40;;;2.38;;
62724;SDS011;49026;52.600;4.694;2022-10-16T16:10:49;11.48;;;2.08;;
62724;SDS011;49026;52.600;4.694;2022-10-16T16:13:22;13.25;;;2.00;;
62724;SDS011;49026;52.600;4.694;2022-10-16T16:15:47;14.60;;;2.08;;
62724;SDS011;49026;52.600;4.694;2022-10-16T16:18:13;14.02;;;3.00;;
62724;SDS011;49026;52.600;4.694;2022-10-16T16:20:38;9.38;;;2.20;;
62724;SDS011;49026;52.600;4.694;2022-10-16T16:23:06;12.57;;;2.05;;
62724;SDS011;49026;52.600;4.694;2022-10-16T16:25:34;12.23;;;2.53;;
62724;SDS011;49026;52.600;4.694;2022-10-16T16:27:59;17.83;;;2.85;;
62724;SDS011;49026;52.600;4.694;2022-10-16T16:30:24;17.70;;;2.22;;
62724;SDS011;49026;52.600;4.694;2022-10-16T16:32:50;18.10;;;3.40;;
62724;SDS011;49026;52.600;4.694;2022-10-16T16:35:16;13.88;;;2.50;;
62724;SDS011;49026;52.600;4.694;2022-10-16T16:37:41;11.93;;;2.88;;
62724;SDS011;49026;52.600;4.694;2022-10-16T16:40:08;15.45;;;3.17;;
62724;SDS011;49026;52.600;4.694;2022-10-16T16:42:34;13.25;;;3.85;;
62724;SDS011;49026;52.600;4.694;2022-10-16T16:44:59;21.30;;;4.55;;
62724;SDS011;49026;52.600;4.694;2022-10-16T16:47:24;17.50;;;4.80;;
62724;SDS011;49026;52.600;4.694;2022-10-16T16:49:50;15.18;;;5.50;;
62724;SDS011;49026;52.600;4.694;2022-10-16T16:52:16;11.95;;;4.05;;
62724;SDS011;49026;52.600;4.694;2022-10-16T16:54:41;15.70;;;4.57;;
62724;SDS011;49026;52.600;4.694;2022-10-16T16:57:08;13.88;;;4.20;;
62724;SDS011;49026;52.600;4.694;2022-10-16T16:59:43;16.90;;;3.75;;
62724;SDS011;49026;52.600;4.694;2022-10-16T17:02:10;15.68;;;4.10;;
62724;SDS011;49026;52.600;4.694;2022-10-16T17:04:36;14.07;;;3.80;;
62724;SDS011;49026;52.600;4.694;2022-10-16T17:07:08;26.02;;;5.28;;